createdAt,value
2022-10-09T00:01:09.375Z,84.81
2022-10-09T00:03:37.601Z,87.24
2022-10-09T00:06:06.065Z,86.85
2022-10-09T00:08:34.496Z,87.61
2022-10-09T00:11:06.132Z,87.16
2022-10-09T00:13:32.580Z,87.39
2022-10-09T00:16:03.795Z,86.84
2022-10-09T00:18:30.335Z,85.42
2022-10-09T00:20:56.790Z,86.09
2022-10-09T00:23:23.229Z,85.98
2022-10-09T00:25:52.609Z,86.37
2022-10-09T00:28:19.908Z,87.26
2022-10-09T00:30:46.381Z,87.25
2022-10-09T00:33:13.067Z,86.34
2022-10-09T00:35:39.535Z,86.36
2022-10-09T00:38:06.881Z,85.89
2022-10-09T00:40:34.383Z,86.25
2022-10-09T00:43:03.598Z,85.29
2022-10-09T00:45:31.164Z,87.59
2022-10-09T00:48:03.259Z,87.02
2022-10-09T00:50:42.058Z,86.24
2022-10-09T00:53:15.239Z,87.14
2022-10-09T00:55:43.244Z,87.09
2022-10-09T00:58:12.137Z,86.95
2022-10-09T01:00:39.300Z,87.01
2022-10-09T01:03:06.026Z,86.47
2022-10-09T01:05:53.240Z,86.85
2022-10-09T01:08:30.936Z,86.52
2022-10-09T01:11:20.855Z,86.46
2022-10-09T01:14:04.475Z,86.67
2022-10-09T01:16:44.838Z,86.50
2022-10-09T01:19:27.585Z,85.79
2022-10-09T01:22:06.211Z,85.24
2022-10-09T01:24:40.974Z,85.15
2022-10-09T01:27:36.562Z,85.62
2022-10-09T01:30:12.253Z,85.52
2022-10-09T01:32:43.539Z,86.08
2022-10-09T01:35:14.122Z,85.71
2022-10-09T01:37:43.454Z,88.05
2022-10-09T01:40:12.636Z,88.53
2022-10-09T01:42:39.148Z,88.24
2022-10-09T01:45:06.141Z,87.98
2022-10-09T01:47:32.854Z,88.88
2022-10-09T01:50:05.855Z,88.58
2022-10-09T01:52:54.438Z,87.92
2022-10-09T01:55:45.260Z,86.77
2022-10-09T01:58:30.782Z,87.11
2022-10-09T02:01:02.777Z,87.21
2022-10-09T02:03:32.082Z,88.16
2022-10-09T02:06:01.235Z,87.44
2022-10-09T02:08:29.998Z,87.50
2022-10-09T02:11:00.536Z,86.86
2022-10-09T02:13:27.757Z,86.94
2022-10-09T02:16:19.834Z,86.71
2022-10-09T02:18:55.988Z,86.75
2022-10-09T02:21:28.932Z,86.56
2022-10-09T02:23:57.958Z,85.82
2022-10-09T02:26:25.007Z,85.89
2022-10-09T02:28:54.415Z,85.82
2022-10-09T02:31:28.205Z,85.56
2022-10-09T02:33:59.428Z,85.15
2022-10-09T02:36:29.115Z,85.80
2022-10-09T02:38:56.300Z,86.15
2022-10-09T02:41:23.900Z,86.08
2022-10-09T02:43:50.746Z,85.80
2022-10-09T02:46:17.532Z,86.12
2022-10-09T02:48:44.412Z,85.84
2022-10-09T02:51:11.638Z,86.68
2022-10-09T02:53:38.174Z,86.15
2022-10-09T02:56:05.041Z,86.28
2022-10-09T02:58:33.325Z,86.49
2022-10-09T03:01:00.157Z,86.23
2022-10-09T03:03:26.919Z,86.47
2022-10-09T03:06:11.596Z,87.27
2022-10-09T03:08:40.529Z,87.90
2022-10-09T03:11:07.309Z,88.60
2022-10-09T03:13:34.165Z,89.23
2022-10-09T03:16:12.080Z,88.64
2022-10-09T03:18:39.172Z,87.69
2022-10-09T03:21:07.469Z,87.46
2022-10-09T03:23:34.895Z,87.44
2022-10-09T03:26:05.097Z,87.41
2022-10-09T03:28:31.881Z,87.43
2022-10-09T03:30:58.448Z,87.82
2022-10-09T03:33:24.925Z,87.99
2022-10-09T03:35:51.510Z,87.97
2022-10-09T03:38:18.110Z,88.45
2022-10-09T03:40:46.996Z,87.44
2022-10-09T03:43:13.541Z,88.18
2022-10-09T03:45:41.285Z,88.02
2022-10-09T03:48:09.325Z,87.66
2022-10-09T03:50:37.781Z,87.56
2022-10-09T03:53:04.985Z,87.81
2022-10-09T03:55:31.633Z,88.23
2022-10-09T03:57:58.520Z,87.45
2022-10-09T04:00:25.176Z,88.17
2022-10-09T04:02:52.494Z,87.49
2022-10-09T04:05:19.567Z,87.64
2022-10-09T04:07:46.121Z,87.67
2022-10-09T04:10:13.027Z,87.48
2022-10-09T04:12:39.616Z,87.52
2022-10-09T04:15:06.615Z,88.57
2022-10-09T04:17:33.198Z,88.50
2022-10-09T04:19:59.635Z,88.66
2022-10-09T04:22:26.233Z,87.88
2022-10-09T04:24:52.631Z,88.79
2022-10-09T04:27:19.370Z,88.24
2022-10-09T04:29:45.860Z,87.90
2022-10-09T04:32:12.288Z,87.79
2022-10-09T04:34:38.806Z,87.94
2022-10-09T04:37:05.292Z,88.00
2022-10-09T04:39:31.744Z,88.12
2022-10-09T04:41:58.204Z,88.40
2022-10-09T04:44:24.688Z,88.46
2022-10-09T04:46:51.726Z,90.09
2022-10-09T04:49:18.604Z,92.07
2022-10-09T04:51:45.229Z,90.67
2022-10-09T04:54:12.012Z,89.95
2022-10-09T04:56:39.285Z,89.38
2022-10-09T04:59:05.742Z,89.26
2022-10-09T05:04:13.205Z,90.61
2022-10-09T05:06:39.745Z,90.63
2022-10-09T05:09:06.232Z,90.62
2022-10-09T05:11:32.695Z,89.85
2022-10-09T05:13:59.301Z,90.71
2022-10-09T05:16:29.292Z,90.41
2022-10-09T05:18:57.922Z,90.12
2022-10-09T05:21:27.644Z,89.07
2022-10-09T05:23:55.320Z,89.30
2022-10-09T05:26:23.368Z,89.56
2022-10-09T05:28:50.276Z,89.32
2022-10-09T05:31:28.926Z,89.91
2022-10-09T05:33:58.397Z,89.52
2022-10-09T05:36:24.982Z,89.73
2022-10-09T05:38:51.448Z,89.40
2022-10-09T05:41:19.473Z,89.63
2022-10-09T05:43:47.919Z,90.35
2022-10-09T05:46:15.771Z,89.36
2022-10-09T05:48:45.502Z,90.54
2022-10-09T05:51:15.183Z,90.82
2022-10-09T05:53:43.053Z,89.92
2022-10-09T05:56:20.717Z,91.00
2022-10-09T05:58:58.193Z,90.18
2022-10-09T06:01:26.989Z,90.04
2022-10-09T06:03:59.041Z,90.61
2022-10-09T06:06:31.385Z,89.99
2022-10-09T06:08:58.615Z,90.04
2022-10-09T06:11:33.346Z,89.61
2022-10-09T06:14:01.511Z,89.70
2022-10-09T06:16:31.729Z,90.13
2022-10-09T06:18:58.678Z,90.15
2022-10-09T06:21:26.442Z,89.94
2022-10-09T06:23:55.287Z,90.29
2022-10-09T06:26:25.409Z,91.08
2022-10-09T06:28:53.281Z,92.42
2022-10-09T06:31:22.936Z,91.30
2022-10-09T06:33:51.279Z,92.13
2022-10-09T06:36:20.211Z,93.77
2022-10-09T06:38:47.489Z,91.91
2022-10-09T06:41:17.968Z,93.04
2022-10-09T06:43:49.974Z,92.90
2022-10-09T06:46:17.454Z,94.21
2022-10-09T06:48:44.234Z,94.60
2022-10-09T06:51:19.059Z,95.08
2022-10-09T06:53:48.439Z,96.32
2022-10-09T06:56:18.749Z,96.54
2022-10-09T06:58:45.731Z,96.39
2022-10-09T07:01:27.244Z,95.48
2022-10-09T07:03:56.527Z,94.69
2022-10-09T07:06:29.542Z,94.08
2022-10-09T07:09:03.786Z,94.21
2022-10-09T07:11:36.755Z,93.67
2022-10-09T07:14:06.114Z,94.91
2022-10-09T07:16:35.939Z,94.35
2022-10-09T07:19:06.463Z,95.19
2022-10-09T07:21:37.258Z,93.99
2022-10-09T07:24:05.092Z,93.80
2022-10-09T07:26:34.955Z,93.12
2022-10-09T07:29:02.596Z,93.36
2022-10-09T07:31:29.291Z,94.41
2022-10-09T07:33:58.612Z,92.94
2022-10-09T07:36:28.422Z,95.03
2022-10-09T07:38:58.515Z,94.59
2022-10-09T07:41:28.985Z,94.45
2022-10-09T07:43:58.080Z,94.45
2022-10-09T07:46:30.806Z,93.96
2022-10-09T07:48:59.742Z,92.61
2022-10-09T07:51:28.926Z,92.48
2022-10-09T07:53:59.267Z,91.58
2022-10-09T07:56:30.159Z,91.64
2022-10-09T07:59:00.222Z,90.91
2022-10-09T08:01:33.983Z,90.09
2022-10-09T08:04:02.094Z,89.42
2022-10-09T08:06:28.963Z,88.22
2022-10-09T08:09:00.404Z,88.15
2022-10-09T08:11:29.173Z,87.34
2022-10-09T08:14:01.406Z,86.37
2022-10-09T08:16:31.901Z,84.68
2022-10-09T08:19:00.377Z,84.65
2022-10-09T08:21:30.034Z,83.69
2022-10-09T08:23:58.079Z,83.54
2022-10-09T08:26:26.089Z,82.61
2022-10-09T08:29:01.039Z,80.71
2022-10-09T08:31:28.774Z,80.48
2022-10-09T08:34:00.797Z,78.54
2022-10-09T08:36:31.674Z,79.82
2022-10-09T08:38:58.842Z,78.95
2022-10-09T08:41:54.239Z,79.17
2022-10-09T08:44:40.889Z,77.81
2022-10-09T08:47:26.292Z,78.34
2022-10-09T08:50:11.334Z,76.31
2022-10-09T08:53:00.995Z,76.81
2022-10-09T08:55:50.604Z,75.48
2022-10-09T08:58:21.379Z,75.23
2022-10-09T09:01:07.873Z,73.85
2022-10-09T09:04:04.573Z,71.56
2022-10-09T09:06:48.213Z,68.72
2022-10-09T09:09:27.892Z,66.56
2022-10-09T09:12:12.712Z,63.91
2022-10-09T09:15:13.369Z,63.10
2022-10-09T09:18:17.449Z,62.32
2022-10-09T09:20:55.800Z,62.07
2022-10-09T09:23:38.753Z,61.81
2022-10-09T09:26:13.757Z,62.06
2022-10-09T09:28:44.048Z,59.78
2022-10-09T09:31:19.485Z,59.39
2022-10-09T09:34:13.608Z,58.46
2022-10-09T09:37:09.847Z,57.73
2022-10-09T09:40:31.400Z,57.10
2022-10-09T09:42:35.629Z,56.25
2022-10-09T09:45:15.605Z,57.32
2022-10-09T09:47:55.989Z,55.77
2022-10-09T09:50:50.572Z,55.25
2022-10-09T09:53:43.979Z,53.21
2022-10-09T09:56:11.205Z,52.19
2022-10-09T09:58:49.916Z,51.23
2022-10-09T10:01:28.193Z,52.43
2022-10-09T10:03:58.047Z,51.16
2022-10-09T10:06:47.708Z,52.54
2022-10-09T10:09:19.373Z,51.37
2022-10-09T10:11:59.712Z,51.34
2022-10-09T10:14:27.505Z,51.09
2022-10-09T10:16:58.850Z,49.96
2022-10-09T10:19:46.151Z,49.62
2022-10-09T10:22:29.667Z,50.10
2022-10-09T10:25:00.150Z,47.45
2022-10-09T10:27:39.632Z,47.01
2022-10-09T10:30:15.937Z,47.46
2022-10-09T10:33:16.307Z,47.13
2022-10-09T10:35:44.617Z,47.25
2022-10-09T10:38:19.952Z,47.55
2022-10-09T10:40:56.788Z,47.77
2022-10-09T10:43:33.548Z,47.63
2022-10-09T10:46:11.544Z,48.30
2022-10-09T10:48:42.403Z,45.81
2022-10-09T10:51:31.907Z,45.75
2022-10-09T10:54:32.267Z,44.40
2022-10-09T10:57:45.873Z,45.01
2022-10-09T11:00:15.912Z,43.66
2022-10-09T11:02:48.546Z,44.28
2022-10-09T11:05:28.221Z,43.71
2022-10-09T11:08:08.394Z,43.90
2022-10-09T11:11:02.155Z,43.06
2022-10-09T11:13:46.929Z,43.13
2022-10-09T11:16:36.735Z,42.49
2022-10-09T11:19:16.136Z,42.25
2022-10-09T11:22:18.777Z,42.34
2022-10-09T11:25:02.438Z,42.35
2022-10-09T11:27:47.957Z,42.57
2022-10-09T11:30:19.873Z,42.83
2022-10-09T11:33:18.701Z,43.25
2022-10-09T11:36:04.247Z,42.26
2022-10-09T11:38:44.077Z,42.07
2022-10-09T11:41:11.735Z,42.68
2022-10-09T11:43:50.155Z,42.30
2022-10-09T11:46:43.290Z,42.75
2022-10-09T11:49:12.698Z,41.91
2022-10-09T11:51:54.026Z,42.72
2022-10-09T11:54:27.315Z,41.66
2022-10-09T11:57:06.017Z,40.64
2022-10-09T11:59:41.949Z,40.76
2022-10-09T12:02:40.488Z,40.78
2022-10-09T12:05:34.823Z,42.25
2022-10-09T12:08:25.055Z,40.71
2022-10-09T12:10:55.860Z,40.46
2022-10-09T12:13:43.444Z,40.62
2022-10-09T12:16:50.835Z,42.29
2022-10-09T12:19:25.094Z,42.54
2022-10-09T12:22:13.073Z,41.10
2022-10-09T12:24:45.410Z,41.15
2022-10-09T12:27:20.843Z,41.59
2022-10-09T12:29:56.781Z,41.51
2022-10-09T12:32:36.055Z,41.06
2022-10-09T12:35:20.011Z,41.39
2022-10-09T12:37:48.769Z,41.17
2022-10-09T12:40:24.511Z,40.52
2022-10-09T12:42:53.652Z,41.45
2022-10-09T12:45:24.916Z,42.07
2022-10-09T12:47:53.980Z,42.31
2022-10-09T12:50:28.262Z,42.05
2022-10-09T12:52:58.481Z,42.19
2022-10-09T12:55:32.459Z,42.34
2022-10-09T12:58:06.265Z,42.08
2022-10-09T13:00:34.058Z,42.04
2022-10-09T13:03:02.736Z,42.02
2022-10-09T13:05:46.141Z,42.10
2022-10-09T13:08:32.404Z,42.04
2022-10-09T13:11:20.565Z,41.92
2022-10-09T13:14:03.772Z,41.53
2022-10-09T13:16:50.157Z,41.08
2022-10-09T13:19:29.093Z,40.20
2022-10-09T13:22:06.454Z,40.99
2022-10-09T13:27:29.338Z,40.43
2022-10-09T13:29:56.808Z,40.69
2022-10-09T13:32:24.692Z,41.30
2022-10-09T13:34:55.065Z,40.46
2022-10-09T13:37:25.280Z,40.73
2022-10-09T13:39:59.485Z,40.92
2022-10-09T13:42:32.504Z,42.06
2022-10-09T13:44:59.223Z,42.53
2022-10-09T13:47:28.111Z,42.29
2022-10-09T13:49:54.972Z,42.58
2022-10-09T13:52:28.520Z,42.73
2022-10-09T13:54:55.748Z,42.64
2022-10-09T13:57:34.437Z,41.58
2022-10-09T14:00:07.168Z,41.31
2022-10-09T14:02:38.382Z,40.37
2022-10-09T14:05:05.563Z,41.07
2022-10-09T14:07:32.197Z,41.20
2022-10-09T14:09:58.793Z,38.84
2022-10-09T14:12:27.716Z,38.87
2022-10-09T14:14:57.118Z,39.16
2022-10-09T14:17:23.809Z,38.76
2022-10-09T14:19:50.419Z,39.72
2022-10-09T14:22:17.354Z,39.96
2022-10-09T14:24:57.075Z,40.32
2022-10-09T14:27:25.829Z,40.36
2022-10-09T14:29:57.406Z,40.01
2022-10-09T14:32:24.579Z,40.42
2022-10-09T14:34:54.203Z,40.93
2022-10-09T14:37:40.013Z,40.67
2022-10-09T14:40:08.211Z,40.54
2022-10-09T14:42:39.317Z,41.12
2022-10-09T14:45:07.312Z,41.59
2022-10-09T14:47:36.113Z,41.40
2022-10-09T14:50:02.745Z,41.81
2022-10-09T14:52:29.290Z,42.22
2022-10-09T14:54:56.832Z,42.44
2022-10-09T14:57:35.748Z,42.73
2022-10-09T15:00:07.809Z,42.92
2022-10-09T15:02:34.672Z,43.61
2022-10-09T15:05:15.101Z,43.58
2022-10-09T15:07:44.189Z,44.21
2022-10-09T15:10:10.641Z,44.56
2022-10-09T15:12:46.406Z,44.19
2022-10-09T15:15:16.330Z,44.88
2022-10-09T15:17:45.531Z,44.95
2022-10-09T15:20:13.558Z,45.11
2022-10-09T15:22:40.342Z,44.99
2022-10-09T15:25:08.379Z,44.26
2022-10-09T15:27:43.260Z,44.52
2022-10-09T15:30:10.702Z,43.79
2022-10-09T15:32:39.771Z,43.89
2022-10-09T15:35:07.244Z,43.36
2022-10-09T15:37:34.094Z,43.81
2022-10-09T15:40:00.784Z,43.51
2022-10-09T15:42:27.372Z,44.44
2022-10-09T15:44:54.060Z,44.44
2022-10-09T15:47:49.511Z,44.79
2022-10-09T15:50:11.042Z,45.15
2022-10-09T15:52:40.174Z,45.64
2022-10-09T15:55:07.465Z,45.42
2022-10-09T15:57:34.208Z,44.78
2022-10-09T16:00:03.054Z,44.93
2022-10-09T16:02:32.115Z,45.02
2022-10-09T16:04:59.745Z,44.61
2022-10-09T16:07:28.735Z,44.66
2022-10-09T16:09:55.378Z,44.72
2022-10-09T16:12:24.580Z,44.41
2022-10-09T16:14:57.554Z,45.03
2022-10-09T16:17:24.202Z,45.40
2022-10-09T16:19:50.919Z,45.92
2022-10-09T16:22:35.125Z,46.26
2022-10-09T16:25:04.205Z,46.72
2022-10-09T16:27:34.566Z,47.12
2022-10-09T16:30:01.436Z,47.18
2022-10-09T16:32:30.751Z,47.58
2022-10-09T16:35:02.864Z,48.32
2022-10-09T16:37:32.681Z,48.16
2022-10-09T16:40:02.113Z,48.34
2022-10-09T16:42:28.743Z,49.59
2022-10-09T16:44:55.384Z,49.20
2022-10-09T16:47:22.090Z,50.20
2022-10-09T16:50:01.465Z,50.71
2022-10-09T16:52:28.493Z,51.10
2022-10-09T16:54:59.547Z,50.89
2022-10-09T16:57:27.004Z,51.26
2022-10-09T16:59:54.981Z,51.35
2022-10-09T17:02:24.386Z,52.42
2022-10-09T17:04:52.415Z,52.01
2022-10-09T17:07:24.946Z,53.33
2022-10-09T17:09:55.128Z,53.40
2022-10-09T17:12:24.117Z,53.16
2022-10-09T17:14:53.918Z,53.81
2022-10-09T17:17:22.936Z,54.50
2022-10-09T17:22:23.577Z,55.23
2022-10-09T17:25:02.958Z,55.59
2022-10-09T17:27:29.585Z,56.29
2022-10-09T17:30:02.323Z,56.64
2022-10-09T17:32:32.035Z,57.28
2022-10-09T17:35:03.106Z,56.99
2022-10-09T17:37:32.356Z,58.05
2022-10-09T17:40:01.649Z,58.00
2022-10-09T17:42:28.368Z,58.09
2022-10-09T17:44:57.173Z,58.59
2022-10-09T17:47:41.355Z,58.48
2022-10-09T17:50:09.065Z,58.56
2022-10-09T17:52:35.788Z,60.02
2022-10-09T17:55:09.868Z,59.29
2022-10-09T17:57:36.606Z,59.79
2022-10-09T18:00:03.875Z,60.84
2022-10-09T18:02:30.623Z,60.45
2022-10-09T18:04:58.125Z,60.47
2022-10-09T18:07:25.375Z,61.10
2022-10-09T18:09:55.177Z,59.30
2022-10-09T18:12:21.851Z,59.21
2022-10-09T18:14:54.778Z,61.56
2022-10-09T18:17:21.633Z,60.24
2022-10-09T18:19:48.436Z,59.71
2022-10-09T18:22:15.054Z,60.51
2022-10-09T18:24:49.337Z,62.58
2022-10-09T18:27:17.017Z,62.85
2022-10-09T18:29:43.882Z,63.74
2022-10-09T18:32:13.292Z,63.44
2022-10-09T18:34:46.377Z,62.42
2022-10-09T18:37:13.290Z,63.66
2022-10-09T18:39:40.038Z,63.25
2022-10-09T18:42:09.784Z,63.15
2022-10-09T18:44:42.531Z,62.90
2022-10-09T18:47:14.605Z,63.50
2022-10-09T18:49:45.999Z,63.21
2022-10-09T18:52:14.043Z,62.67
2022-10-09T18:54:42.239Z,65.18
2022-10-09T18:57:12.628Z,65.30
2022-10-09T18:59:40.388Z,66.18
2022-10-09T19:02:09.065Z,66.52
2022-10-09T19:04:35.742Z,66.92
2022-10-09T19:07:02.465Z,65.73
2022-10-09T19:09:48.333Z,66.98
2022-10-09T19:12:19.937Z,66.88
2022-10-09T19:14:47.332Z,66.26
2022-10-09T19:17:14.470Z,66.87
2022-10-09T19:19:41.760Z,67.26
2022-10-09T19:22:15.208Z,66.01
2022-10-09T19:24:43.836Z,66.27
2022-10-09T19:27:13.871Z,66.46
2022-10-09T19:29:53.439Z,66.79
2022-10-09T19:32:45.241Z,66.86
2022-10-09T19:35:16.466Z,66.89
2022-10-09T19:37:43.116Z,66.92
2022-10-09T19:40:11.286Z,66.74
2022-10-09T19:42:37.904Z,66.71
2022-10-09T19:45:04.762Z,66.90
2022-10-09T19:47:31.477Z,66.99
2022-10-09T19:50:05.286Z,67.50
2022-10-09T19:52:32.053Z,67.02
2022-10-09T19:55:01.065Z,67.84
2022-10-09T19:57:29.819Z,66.47
2022-10-09T20:00:03.289Z,67.19
2022-10-09T20:02:31.383Z,67.37
2022-10-09T20:04:59.514Z,67.74
2022-10-09T20:07:26.218Z,66.43
2022-10-09T20:09:52.940Z,66.89
2022-10-09T20:12:19.844Z,67.51
2022-10-09T20:14:46.604Z,67.47
2022-10-09T20:17:13.216Z,67.24
2022-10-09T20:19:43.494Z,66.42
2022-10-09T20:22:13.635Z,66.76
2022-10-09T20:24:40.539Z,66.41
2022-10-09T20:27:07.319Z,66.88
2022-10-09T20:29:35.383Z,66.34
2022-10-09T20:32:01.923Z,66.76
2022-10-09T20:34:39.223Z,65.99
2022-10-09T20:37:08.651Z,66.00
2022-10-09T20:39:35.230Z,66.20
2022-10-09T20:42:01.777Z,66.23
2022-10-09T20:44:28.548Z,66.31
2022-10-09T20:47:02.726Z,66.07
2022-10-09T20:49:29.390Z,66.20
2022-10-09T20:51:56.902Z,65.64
2022-10-09T20:54:26.106Z,65.98
2022-10-09T20:56:52.750Z,65.77
2022-10-09T20:59:19.362Z,66.27
2022-10-09T21:01:46.042Z,66.25
2022-10-09T21:04:12.771Z,66.50
2022-10-09T21:06:41.820Z,66.69
2022-10-09T21:09:09.958Z,66.17
2022-10-09T21:11:38.098Z,66.09
2022-10-09T21:14:04.902Z,66.36
2022-10-09T21:16:31.620Z,66.59
2022-10-09T21:19:02.986Z,66.64
2022-10-09T21:21:30.409Z,66.77
2022-10-09T21:23:58.801Z,67.10
2022-10-09T21:26:26.863Z,66.46
2022-10-09T21:28:58.998Z,66.98
2022-10-09T21:31:28.409Z,66.64
2022-10-09T21:33:56.357Z,66.79
2022-10-09T21:36:31.683Z,67.67
2022-10-09T21:38:58.402Z,67.34
2022-10-09T21:41:27.479Z,67.30
2022-10-09T21:43:53.975Z,67.19
2022-10-09T21:46:20.815Z,67.20
2022-10-09T21:48:47.524Z,67.17
2022-10-09T21:51:14.085Z,67.38
2022-10-09T21:53:40.642Z,67.18
2022-10-09T21:56:07.437Z,67.24
2022-10-09T21:58:34.115Z,67.76
2022-10-09T22:01:01.986Z,67.49
2022-10-09T22:03:32.101Z,67.77
2022-10-09T22:05:58.660Z,67.25
2022-10-09T22:08:26.086Z,67.96
2022-10-09T22:10:52.879Z,67.58
2022-10-09T22:13:24.502Z,67.69
2022-10-09T22:15:51.567Z,67.65
2022-10-09T22:18:19.521Z,67.44
2022-10-09T22:20:49.121Z,67.41
2022-10-09T22:23:20.398Z,67.63
2022-10-09T22:26:05.411Z,67.47
2022-10-09T22:28:33.142Z,67.78
2022-10-09T22:31:23.269Z,67.64
2022-10-09T22:33:56.256Z,67.87
2022-10-09T22:36:26.481Z,67.52
2022-10-09T22:38:58.207Z,67.97
2022-10-09T22:41:26.334Z,67.60
2022-10-09T22:43:55.106Z,67.75
2022-10-09T22:46:27.835Z,67.91
2022-10-09T22:48:55.329Z,67.49
2022-10-09T22:51:23.515Z,68.08
2022-10-09T22:53:50.275Z,68.71
2022-10-09T22:56:21.834Z,68.86
2022-10-09T22:58:55.799Z,69.14
2022-10-09T23:01:27.263Z,68.80
2022-10-09T23:03:53.743Z,68.36
2022-10-09T23:06:20.271Z,69.66
2022-10-09T23:08:48.420Z,69.00
2022-10-09T23:11:16.461Z,68.87
2022-10-09T23:13:45.184Z,68.56
2022-10-09T23:16:14.061Z,69.20
2022-10-09T23:18:41.217Z,68.66
2022-10-09T23:21:16.654Z,69.04
2022-10-09T23:23:46.826Z,69.88
2022-10-09T23:26:19.578Z,70.06
2022-10-09T23:29:02.409Z,69.34
2022-10-09T23:31:29.651Z,69.84
2022-10-09T23:33:57.170Z,69.54
2022-10-09T23:36:27.156Z,69.70
2022-10-09T23:38:54.012Z,70.80
2022-10-09T23:41:23.443Z,70.85
2022-10-09T23:43:54.111Z,70.81
2022-10-09T23:46:25.764Z,70.51
2022-10-09T23:48:55.340Z,70.80
2022-10-09T23:51:23.373Z,70.88
2022-10-09T23:53:50.086Z,70.20
2022-10-09T23:56:24.340Z,71.26
2022-10-09T23:58:52.107Z,71.03
